Time;durP1;ratioP1;P1;durP2;ratioP2;P2;SDS_P1;SDS_P2;PMS_P1;PMS_P2;Temp;Humidity;BMP_temperature;BMP_pressure;BME280_temperature;BME280_humidity;BME280_pressure;Samples;Min_cycle;Max_cycle;Signal;HPM_P1;HPM_P2
2023/04/25 00:01:15;;;;;;;26.40;23.10;;;16.10;99.90;;;;;;4974473;28;20814;-93
2023/04/25 00:03:41;;;;;;;25.77;21.57;;;16.10;99.90;;;;;;4975975;28;20425;-92
2023/04/25 00:06:07;;;;;;;25.00;20.93;;;16.10;99.90;;;;;;4974613;28;20853;-82
2023/04/25 00:08:33;;;;;;;26.50;20.77;;;16.10;99.90;;;;;;4974489;28;20177;-82
2023/04/25 00:11:00;;;;;;;24.73;20.87;;;16.10;99.90;;;;;;4974103;28;21002;-82
2023/04/25 00:13:26;;;;;;;24.27;19.00;;;16.10;99.90;;;;;;4976027;28;20418;-88
2023/04/25 00:15:56;;;;;;;30.37;19.13;;;16.00;99.90;;;;;;4982877;28;20509;-92
2023/04/25 00:18:22;;;;;;;24.83;20.10;;;16.00;99.90;;;;;;4984933;28;20840;-81
2023/04/25 00:20:48;;;;;;;23.40;19.43;;;16.00;99.90;;;;;;4977340;28;20494;-81
2023/04/25 00:23:17;;;;;;;23.60;18.07;;;16.00;99.90;;;;;;4975437;28;21015;-89
2023/04/25 00:25:48;;;;;;;21.70;17.73;;;16.00;99.90;;;;;;4977535;28;20495;-81
2023/04/25 00:28:14;;;;;;;20.10;15.83;;;16.00;99.90;;;;;;4976802;28;20880;-90
2023/04/25 00:30:41;;;;;;;17.47;14.60;;;15.90;99.90;;;;;;4974262;28;20492;-80
2023/04/25 00:33:07;;;;;;;19.97;15.40;;;15.90;99.90;;;;;;4975317;28;20406;-81
2023/04/25 00:35:33;;;;;;;19.07;14.03;;;15.80;99.90;;;;;;4974022;28;20472;-81
2023/04/25 00:37:59;;;;;;;16.30;13.33;;;15.80;99.90;;;;;;4974041;28;21023;-91
2023/04/25 00:40:25;;;;;;;15.40;12.80;;;15.70;99.90;;;;;;4974537;28;20477;-91
2023/04/25 00:42:54;;;;;;;17.63;12.40;;;15.60;99.90;;;;;;4975498;28;20457;-88
2023/04/25 00:45:20;;;;;;;17.50;13.43;;;15.60;99.90;;;;;;4975320;28;20441;-89
2023/04/25 00:47:47;;;;;;;15.73;13.70;;;15.50;99.90;;;;;;4974208;28;20430;-80
2023/04/25 00:50:13;;;;;;;18.63;13.60;;;15.50;99.90;;;;;;4974208;28;20481;-90
2023/04/25 00:52:42;;;;;;;19.53;14.57;;;15.50;99.90;;;;;;4985671;28;20418;-89
2023/04/25 00:55:09;;;;;;;18.13;13.33;;;15.50;99.90;;;;;;4974424;28;20446;-88
2023/04/25 00:57:36;;;;;;;19.33;14.80;;;15.50;99.90;;;;;;4976484;28;20497;-88
2023/04/25 01:00:05;;;;;;;18.10;13.80;;;15.40;99.90;;;;;;4975896;28;20472;-90
2023/04/25 01:02:31;;;;;;;19.03;14.43;;;15.40;99.90;;;;;;4974023;28;20973;-80
2023/04/25 01:04:57;;;;;;;19.70;13.97;;;15.30;99.90;;;;;;4973499;28;20480;-80
2023/04/25 01:07:23;;;;;;;19.93;14.17;;;15.40;99.90;;;;;;4974029;28;20473;-83
2023/04/25 01:09:51;;;;;;;17.50;14.50;;;15.30;99.90;;;;;;4976211;28;20887;-89
2023/04/25 01:12:17;;;;;;;20.67;14.60;;;15.20;99.90;;;;;;4977712;28;20188;-80
2023/04/25 01:14:43;;;;;;;20.40;15.20;;;15.20;99.90;;;;;;4978805;28;20469;-87
2023/04/25 01:17:09;;;;;;;24.83;15.87;;;15.20;99.90;;;;;;4977524;28;20184;-79
2023/04/25 01:19:35;;;;;;;18.43;14.63;;;15.10;99.90;;;;;;4978471;28;20438;-90
2023/04/25 01:22:01;;;;;;;19.23;15.03;;;15.10;99.90;;;;;;4978485;28;21021;-87
2023/04/25 01:24:27;;;;;;;19.73;14.60;;;15.10;99.90;;;;;;4977579;28;20180;-80
2023/04/25 01:26:56;;;;;;;18.00;14.13;;;15.10;99.90;;;;;;4978827;28;20569;-86
2023/04/25 01:29:23;;;;;;;21.20;15.77;;;15.10;99.90;;;;;;4978679;28;20473;-90
2023/04/25 01:31:49;;;;;;;17.97;13.03;;;15.10;99.90;;;;;;4981716;28;20423;-80
2023/04/25 01:34:15;;;;;;;20.47;14.07;;;15.10;99.90;;;;;;4978960;28;20441;-80
2023/04/25 01:36:41;;;;;;;19.70;13.97;;;15.10;99.90;;;;;;4977256;28;20456;-87
2023/04/25 01:39:07;;;;;;;18.47;14.00;;;15.00;99.90;;;;;;4976541;28;20236;-81
2023/04/25 01:41:34;;;;;;;17.10;13.23;;;15.00;99.90;;;;;;4978117;28;20172;-89
2023/04/25 01:44:00;;;;;;;15.63;12.20;;;15.00;99.90;;;;;;4978087;28;20426;-91
2023/04/25 01:46:26;;;;;;;16.40;13.50;;;15.00;99.90;;;;;;4977881;28;20438;-90
2023/04/25 01:48:52;;;;;;;21.10;12.50;;;15.00;99.90;;;;;;4976936;28;20779;-90
2023/04/25 01:51:18;;;;;;;16.63;12.63;;;14.90;99.90;;;;;;4977299;28;20438;-80
2023/04/25 01:53:45;;;;;;;16.80;13.13;;;14.90;99.90;;;;;;4977116;28;20335;-90
2023/04/25 01:56:10;;;;;;;16.97;11.80;;;14.90;99.90;;;;;;4978163;28;20446;-80
2023/04/25 01:58:36;;;;;;;15.40;11.97;;;14.90;99.90;;;;;;4977507;28;20912;-80
2023/04/25 02:01:02;;;;;;;16.13;12.83;;;14.90;99.90;;;;;;4977580;28;20212;-90
2023/04/25 02:03:29;;;;;;;14.50;11.17;;;14.90;99.90;;;;;;4977704;28;20394;-80
2023/04/25 02:05:55;;;;;;;16.27;12.70;;;14.90;99.90;;;;;;4976485;28;20439;-80
2023/04/25 02:08:21;;;;;;;16.33;11.43;;;14.90;99.90;;;;;;4977714;28;20406;-90
2023/04/25 02:10:47;;;;;;;15.10;10.77;;;14.80;99.90;;;;;;4976484;28;20220;-80
2023/04/25 02:13:13;;;;;;;15.20;10.70;;;14.80;99.90;;;;;;4977958;28;20411;-90
2023/04/25 02:15:39;;;;;;;15.77;11.50;;;14.80;99.90;;;;;;4976363;28;20227;-91
2023/04/25 02:18:06;;;;;;;14.30;10.97;;;14.80;99.90;;;;;;4977445;28;20501;-80
2023/04/25 02:20:32;;;;;;;14.50;11.70;;;14.80;99.90;;;;;;4977616;28;20438;-90
2023/04/25 02:22:57;;;;;;;14.10;10.60;;;14.80;99.90;;;;;;4980398;28;20419;-81
2023/04/25 02:25:24;;;;;;;12.30;10.20;;;14.80;99.90;;;;;;4976465;28;20528;-80
2023/04/25 02:27:51;;;;;;;11.13;9.10;;;14.80;99.90;;;;;;4977471;28;20414;-80
2023/04/25 02:30:17;;;;;;;11.80;10.23;;;14.70;99.90;;;;;;4975776;28;20220;-90
2023/04/25 02:32:42;;;;;;;10.40;8.60;;;14.70;99.90;;;;;;4977542;28;20788;-82
2023/04/25 02:35:09;;;;;;;12.53;9.67;;;14.70;99.90;;;;;;4977721;28;20434;-81
2023/04/25 02:37:36;;;;;;;13.50;9.80;;;14.70;99.90;;;;;;4975921;28;20188;-81
2023/04/25 02:40:03;;;;;;;11.37;9.03;;;14.60;99.90;;;;;;4977372;28;20482;-91
2023/04/25 02:42:30;;;;;;;10.20;8.57;;;14.60;99.90;;;;;;4976178;28;20485;-80
2023/04/25 02:44:55;;;;;;;12.97;9.47;;;14.50;99.90;;;;;;4975772;28;20460;-80
2023/04/25 02:47:22;;;;;;;11.97;8.90;;;14.50;99.90;;;;;;4977197;28;20403;-88
2023/04/25 02:49:47;;;;;;;11.77;8.70;;;14.50;99.90;;;;;;4975653;28;20225;-80
2023/04/25 02:52:13;;;;;;;12.17;8.27;;;14.50;99.90;;;;;;4977124;28;20832;-89
2023/04/25 02:54:40;;;;;;;9.50;8.10;;;14.50;99.90;;;;;;4976125;28;20204;-80
2023/04/25 02:57:06;;;;;;;12.20;8.67;;;14.50;99.90;;;;;;4975574;28;20184;-90
2023/04/25 02:59:32;;;;;;;9.37;7.30;;;14.50;99.90;;;;;;4975306;28;20453;-80
2023/04/25 03:01:57;;;;;;;10.97;8.83;;;14.40;99.90;;;;;;4975750;28;20456;-89
2023/04/25 03:04:26;;;;;;;12.33;8.67;;;14.30;99.90;;;;;;4977678;28;20211;-80
2023/04/25 03:06:52;;;;;;;11.40;9.40;;;14.20;99.90;;;;;;4977393;28;20176;-80
2023/04/25 03:09:17;;;;;;;10.70;8.00;;;14.20;99.90;;;;;;4975127;28;20601;-80
2023/04/25 03:11:45;;;;;;;10.93;8.73;;;14.20;99.90;;;;;;4976440;28;20459;-79
2023/04/25 03:14:11;;;;;;;10.37;8.20;;;14.20;99.90;;;;;;4976634;28;20184;-91
2023/04/25 03:16:37;;;;;;;11.07;8.30;;;14.20;99.90;;;;;;4975241;28;20410;-80
2023/04/25 03:19:03;;;;;;;9.63;8.63;;;14.20;99.90;;;;;;4976710;28;20429;-80
2023/04/25 03:21:31;;;;;;;10.30;8.53;;;14.30;99.90;;;;;;4975049;28;20204;-90
2023/04/25 03:23:58;;;;;;;10.40;8.13;;;14.20;99.90;;;;;;4975411;28;20489;-90
2023/04/25 03:26:24;;;;;;;11.03;7.37;;;14.20;99.90;;;;;;4976050;28;20529;-90
2023/04/25 03:28:50;;;;;;;10.83;7.90;;;14.20;99.90;;;;;;4976401;28;20421;-90
2023/04/25 03:31:16;;;;;;;10.33;8.40;;;14.10;99.90;;;;;;4976253;28;20801;-90
2023/04/25 03:33:41;;;;;;;9.07;8.10;;;14.10;99.90;;;;;;4976265;28;20414;-90
2023/04/25 03:36:08;;;;;;;8.93;7.97;;;14.10;99.90;;;;;;4974856;28;20486;-90
2023/04/25 03:38:33;;;;;;;11.60;8.60;;;14.10;99.90;;;;;;4975020;28;20232;-80
2023/04/25 03:40:59;;;;;;;9.43;7.73;;;14.10;99.90;;;;;;4974639;28;20438;-88
2023/04/25 03:43:25;;;;;;;11.00;8.30;;;14.10;99.90;;;;;;4974492;28;20212;-80
2023/04/25 03:45:50;;;;;;;16.37;9.00;;;14.00;99.90;;;;;;4974706;28;20211;-80
2023/04/25 03:48:16;;;;;;;9.87;7.43;;;14.00;99.90;;;;;;4974846;28;20239;-80
2023/04/25 03:50:43;;;;;;;7.70;6.87;;;14.00;99.90;;;;;;4974607;28;20528;-89
2023/04/25 03:53:08;;;;;;;9.90;8.10;;;14.20;99.90;;;;;;4974597;28;20185;-89
2023/04/25 03:55:34;;;;;;;11.80;8.27;;;14.20;99.90;;;;;;4974350;28;20986;-80
2023/04/25 03:58:00;;;;;;;8.90;8.00;;;14.20;99.90;;;;;;4975703;28;20203;-83
2023/04/25 04:00:27;;;;;;;12.60;8.87;;;14.10;99.90;;;;;;4974757;28;20189;-90
2023/04/25 04:02:53;;;;;;;10.80;7.83;;;14.20;99.90;;;;;;4974624;28;20185;-90
2023/04/25 04:05:18;;;;;;;11.33;8.93;;;14.20;99.90;;;;;;4978744;28;20452;-86
2023/04/25 04:07:44;;;;;;;10.23;7.90;;;14.20;99.90;;;;;;4974495;28;20185;-80
2023/04/25 04:10:10;;;;;;;9.00;7.67;;;14.10;99.90;;;;;;4975432;28;20219;-80
2023/04/25 04:12:36;;;;;;;10.23;8.50;;;14.10;99.90;;;;;;4974107;28;20597;-88
2023/04/25 04:15:06;;;;;;;9.90;8.70;;;14.10;99.90;;;;;;4976532;28;20234;-80
2023/04/25 04:17:32;;;;;;;10.17;8.57;;;14.10;99.90;;;;;;4974467;28;20418;-80
2023/04/25 04:19:58;;;;;;;9.63;8.63;;;14.00;99.90;;;;;;4976406;28;20971;-89
2023/04/25 04:22:24;;;;;;;8.50;7.60;;;14.10;99.90;;;;;;4975619;28;20442;-84
2023/04/25 04:24:50;;;;;;;8.63;7.80;;;14.00;99.90;;;;;;4974817;28;20199;-80
2023/04/25 04:27:17;;;;;;;9.03;7.77;;;14.00;99.90;;;;;;4973788;28;20434;-79
2023/04/25 04:29:44;;;;;;;10.10;8.20;;;14.00;99.90;;;;;;4983092;28;20564;-79
2023/04/25 04:32:09;;;;;;;9.80;7.57;;;13.90;99.90;;;;;;4973524;28;20513;-88
2023/04/25 04:34:35;;;;;;;9.17;7.97;;;14.00;99.90;;;;;;4993904;28;20875;-79
2023/04/25 04:37:01;;;;;;;9.03;6.60;;;14.00;99.90;;;;;;4991258;28;20195;-89
2023/04/25 04:39:27;;;;;;;8.37;7.50;;;14.00;99.90;;;;;;4983837;28;20475;-79
2023/04/25 04:41:53;;;;;;;7.67;6.87;;;14.00;99.90;;;;;;4982620;28;20804;-88
2023/04/25 04:44:19;;;;;;;9.60;7.10;;;13.90;99.90;;;;;;4991970;28;20182;-79
2023/04/25 04:46:46;;;;;;;7.53;6.70;;;13.80;99.90;;;;;;4992568;28;20431;-79
2023/04/25 04:49:13;;;;;;;8.40;7.43;;;13.90;99.90;;;;;;4993264;28;20481;-85
2023/04/25 04:51:40;;;;;;;7.03;6.33;;;13.90;99.90;;;;;;4985654;28;20798;-84
2023/04/25 04:54:06;;;;;;;9.20;8.27;;;14.00;99.90;;;;;;5001497;28;20804;-86
2023/04/25 04:56:32;;;;;;;6.80;6.10;;;14.10;99.90;;;;;;4997059;28;20551;-86
2023/04/25 04:58:58;;;;;;;8.30;7.23;;;14.20;99.90;;;;;;5003514;28;20181;-83
2023/04/25 05:01:25;;;;;;;7.67;6.97;;;14.30;99.90;;;;;;4995604;28;20953;-87
2023/04/25 05:03:51;;;;;;;8.33;6.83;;;14.30;99.90;;;;;;4994174;28;20437;-89
2023/04/25 05:06:18;;;;;;;8.10;7.30;;;14.40;99.90;;;;;;4992715;28;20449;-88
2023/04/25 05:08:44;;;;;;;8.27;6.87;;;14.40;99.90;;;;;;4994037;28;20523;-80
2023/04/25 05:11:09;;;;;;;7.50;6.57;;;14.50;99.90;;;;;;4998102;28;20554;-81
2023/04/25 05:13:35;;;;;;;7.37;6.60;;;14.50;99.90;;;;;;4998817;28;20186;-91
2023/04/25 05:16:01;;;;;;;6.63;6.00;;;14.60;99.90;;;;;;5003161;28;20599;-91
2023/04/25 05:18:27;;;;;;;10.93;6.30;;;14.50;99.90;;;;;;4995249;28;20210;-87
2023/04/25 05:20:53;;;;;;;7.93;5.90;;;14.50;99.90;;;;;;4985689;28;20211;-89
2023/04/25 05:23:19;;;;;;;6.40;5.80;;;14.50;99.90;;;;;;4997187;28;20180;-82
2023/04/25 05:25:45;;;;;;;9.07;5.67;;;14.60;99.90;;;;;;5000361;28;20804;-84
2023/04/25 05:28:12;;;;;;;7.23;6.53;;;14.50;99.90;;;;;;4995503;28;20436;-82
2023/04/25 05:30:38;;;;;;;6.90;6.20;;;14.60;99.90;;;;;;4994457;28;20623;-84
2023/04/25 05:33:04;;;;;;;6.70;6.00;;;14.60;99.90;;;;;;4992698;28;20464;-81
2023/04/25 05:35:30;;;;;;;7.00;6.30;;;14.60;99.90;;;;;;4991306;28;20770;-84
2023/04/25 05:37:55;;;;;;;6.53;5.93;;;14.50;99.90;;;;;;4986150;28;20185;-83
2023/04/25 05:40:21;;;;;;;7.00;6.30;;;14.40;99.90;;;;;;4980862;28;20207;-83
2023/04/25 05:42:47;;;;;;;7.90;7.10;;;14.30;99.90;;;;;;4998851;28;20216;-83
2023/04/25 05:45:12;;;;;;;6.63;6.00;;;14.20;99.90;;;;;;4988322;28;20453;-84
2023/04/25 05:47:38;;;;;;;6.53;5.93;;;14.10;99.90;;;;;;4995664;28;20639;-82
2023/04/25 05:50:05;;;;;;;6.90;6.20;;;14.10;99.90;;;;;;4981381;28;20692;-83
2023/04/25 05:52:31;;;;;;;11.60;9.40;;;14.00;99.90;;;;;;4989223;28;20774;-82
2023/04/25 05:54:56;;;;;;;8.40;7.50;;;13.90;99.90;;;;;;4996943;28;20457;-83
2023/04/25 05:57:24;;;;;;;7.03;6.33;;;13.90;99.90;;;;;;4988978;28;20873;-83
2023/04/25 05:59:50;;;;;;;7.97;6.30;;;13.90;99.90;;;;;;4983554;28;20314;-82
2023/04/25 06:02:16;;;;;;;7.63;6.13;;;13.90;99.90;;;;;;4986976;28;20442;-82
2023/04/25 06:04:42;;;;;;;7.00;6.30;;;;;;;;;;4994578;28;21034;-85
2023/04/25 06:07:08;;;;;;;7.47;6.63;;;;;;;;;;4993575;28;20275;-79
2023/04/25 06:09:34;;;;;;;8.70;6.43;;;13.90;99.90;;;;;;4995247;28;20579;-83
2023/04/25 06:12:00;;;;;;;7.10;6.40;;;13.90;99.90;;;;;;4993432;28;20793;-84
2023/04/25 06:14:26;;;;;;;7.23;6.53;;;14.00;99.90;;;;;;4992310;28;20433;-82
2023/04/25 06:16:52;;;;;;;8.27;6.73;;;14.00;99.90;;;;;;4989525;28;20427;-81
2023/04/25 06:19:18;;;;;;;6.77;6.10;;;14.00;99.90;;;;;;4990870;28;20433;-83
2023/04/25 06:21:44;;;;;;;8.77;6.30;;;14.00;99.90;;;;;;4979300;28;20593;-82
2023/04/25 06:24:10;;;;;;;6.70;5.70;;;14.00;99.90;;;;;;4964607;28;20191;-82
2023/04/25 06:26:36;;;;;;;7.77;6.97;;;13.90;99.90;;;;;;4963554;28;20708;-83
2023/04/25 06:29:02;;;;;;;8.73;6.40;;;14.00;99.90;;;;;;4966532;28;20457;-83
2023/04/25 06:31:37;;;;;;;6.63;6.00;;;14.00;99.90;;;;;;4966374;28;20249;-82
2023/04/25 06:34:04;;;;;;;6.23;5.63;;;14.00;99.90;;;;;;4967803;28;20444;-87
2023/04/25 06:36:30;;;;;;;17.00;7.07;;;14.10;99.90;;;;;;4981940;28;20882;-83
2023/04/25 06:38:55;;;;;;;5.83;5.33;;;14.00;99.90;;;;;;4965710;28;20600;-82
2023/04/25 06:41:21;;;;;;;6.07;5.53;;;14.00;99.90;;;;;;4965942;28;20318;-85
2023/04/25 06:43:47;;;;;;;6.27;5.47;;;14.00;99.90;;;;;;4963482;28;20187;-83
2023/04/25 06:46:12;;;;;;;5.30;4.80;;;14.00;99.90;;;;;;4963730;28;20211;-83
2023/04/25 06:48:38;;;;;;;7.87;7.07;;;14.10;99.90;;;;;;4964243;28;20476;-83
2023/04/25 06:51:04;;;;;;;6.70;6.00;;;14.10;99.90;;;;;;4963152;28;21059;-83
2023/04/25 06:53:29;;;;;;;8.73;4.70;;;14.30;99.90;;;;;;4961588;28;20194;-83
2023/04/25 06:55:55;;;;;;;5.93;5.33;;;14.40;99.90;;;;;;4962682;28;20215;-83
2023/04/25 06:58:21;;;;;;;7.10;5.63;;;14.40;99.90;;;;;;4987708;28;20226;-82
2023/04/25 07:00:47;;;;;;;5.17;4.77;;;14.30;99.90;;;;;;4987308;28;20644;-83
2023/04/25 07:03:12;;;;;;;6.50;5.13;;;14.30;99.90;;;;;;4988330;28;20421;-82
2023/04/25 07:05:38;;;;;;;7.30;6.40;;;14.20;99.90;;;;;;4986864;28;20631;-83
2023/04/25 07:08:04;;;;;;;6.53;5.83;;;14.10;99.90;;;;;;4989202;28;20184;-82
2023/04/25 07:10:30;;;;;;;5.53;5.03;;;14.00;99.90;;;;;;4989843;28;20278;-82
2023/04/25 07:12:55;;;;;;;5.60;5.10;;;14.00;99.90;;;;;;4986750;28;20179;-80
2023/04/25 07:15:21;;;;;;;9.60;6.00;;;13.90;99.90;;;;;;4986405;28;20934;-83
2023/04/25 07:17:47;;;;;;;5.70;5.17;;;14.00;99.90;;;;;;4989313;28;20323;-80
2023/04/25 07:20:12;;;;;;;6.40;5.30;;;14.00;99.90;;;;;;4986894;28;20668;-83
2023/04/25 07:22:38;;;;;;;13.80;7.13;;;14.10;99.90;;;;;;4993791;28;20192;-80
2023/04/25 07:25:05;;;;;;;8.20;7.40;;;14.10;99.90;;;;;;4988629;28;20804;-83
2023/04/25 07:27:32;;;;;;;12.00;8.87;;;14.00;99.90;;;;;;4988281;28;20242;-83
2023/04/25 07:29:58;;;;;;;6.37;5.77;;;14.10;99.90;;;;;;4990466;28;20489;-83
2023/04/25 07:32:25;;;;;;;5.93;5.33;;;14.10;99.90;;;;;;4987360;28;20686;-80
2023/04/25 07:34:51;;;;;;;5.70;5.20;;;14.10;99.90;;;;;;4976926;28;20561;-81
2023/04/25 07:37:18;;;;;;;6.43;5.83;;;14.20;99.90;;;;;;4987088;28;20433;-80
2023/04/25 07:39:45;;;;;;;6.17;5.57;;;14.20;99.90;;;;;;4985101;28;20559;-80
2023/04/25 07:42:11;;;;;;;6.13;5.53;;;14.20;99.90;;;;;;4988522;28;20449;-80
2023/04/25 07:44:40;;;;;;;7.07;5.60;;;14.30;99.90;;;;;;4998284;28;20500;-83
2023/04/25 07:47:10;;;;;;;6.83;6.10;;;14.40;99.90;;;;;;4987512;28;20187;-84
2023/04/25 07:49:36;;;;;;;7.47;6.50;;;14.50;99.90;;;;;;4994347;28;20476;-80
2023/04/25 07:52:04;;;;;;;6.30;5.70;;;14.60;99.90;;;;;;4991551;28;20519;-79
2023/04/25 07:54:29;;;;;;;7.60;6.27;;;14.70;99.90;;;;;;4991671;28;20449;-85
2023/04/25 07:56:55;;;;;;;6.80;6.10;;;14.70;99.90;;;;;;4989202;28;20540;-81
2023/04/25 07:59:21;;;;;;;7.63;6.63;;;14.70;99.90;;;;;;4990470;28;20186;-83
2023/04/25 08:01:50;;;;;;;7.40;6.70;;;;;;;;;;4985831;28;20440;-82
2023/04/25 08:04:16;;;;;;;7.23;6.43;;;14.70;99.90;;;;;;4989065;28;20748;-83
2023/04/25 08:06:42;;;;;;;6.90;6.10;;;14.90;99.90;;;;;;4988981;28;20460;-81
2023/04/25 08:09:09;;;;;;;7.60;6.80;;;15.00;99.90;;;;;;4986974;28;21056;-83
2023/04/25 08:11:35;;;;;;;8.00;6.90;;;15.10;99.90;;;;;;4992103;28;20499;-83
2023/04/25 08:14:01;;;;;;;6.70;6.10;;;15.20;99.90;;;;;;4994563;28;20511;-81
2023/04/25 08:16:28;;;;;;;6.97;6.27;;;15.30;99.90;;;;;;4991627;28;20461;-85
2023/04/25 08:18:53;;;;;;;6.20;5.70;;;15.40;99.90;;;;;;4986732;28;20437;-84
2023/04/25 08:21:20;;;;;;;9.47;7.47;;;15.40;99.90;;;;;;4988633;28;20801;-85
2023/04/25 08:23:45;;;;;;;6.63;6.03;;;15.40;99.90;;;;;;4990338;28;20192;-85
2023/04/25 08:26:11;;;;;;;7.20;5.60;;;15.60;99.90;;;;;;4984683;28;20536;-88
2023/04/25 08:28:37;;;;;;;6.43;5.83;;;15.70;99.90;;;;;;5001426;28;20800;-86
2023/04/25 08:31:03;;;;;;;5.43;4.93;;;15.80;99.90;;;;;;4987644;28;20215;-84
2023/04/25 08:33:29;;;;;;;6.87;6.27;;;15.80;99.90;;;;;;4990878;28;20289;-84
2023/04/25 08:35:55;;;;;;;6.60;6.00;;;15.80;99.90;;;;;;4990016;28;20452;-82
2023/04/25 08:38:21;;;;;;;5.80;5.20;;;15.90;99.90;;;;;;5001141;28;20468;-80
2023/04/25 08:40:53;;;;;;;6.33;5.87;;;;;;;;;;4985965;28;20469;-82
2023/04/25 08:43:20;;;;;;;5.80;5.30;;;16.00;99.90;;;;;;4982330;28;20187;-85
2023/04/25 08:45:46;;;;;;;6.13;5.53;;;16.40;99.90;;;;;;4984051;28;20450;-84
2023/04/25 08:48:14;;;;;;;5.60;5.10;;;16.50;99.90;;;;;;4990001;28;20418;-83
2023/04/25 08:50:55;;;;;;;6.00;5.43;;;16.70;99.90;;;;;;4990208;28;20579;-83
2023/04/25 08:53:33;;;;;;;6.43;4.80;;;16.70;99.90;;;;;;4987435;28;20441;-82
2023/04/25 08:56:01;;;;;;;6.10;5.00;;;16.70;99.90;;;;;;4984889;28;20917;-81
2023/04/25 08:58:28;;;;;;;7.90;5.07;;;;;;;;;;5006207;28;20421;-83
2023/04/25 09:00:54;;;;;;;5.70;5.20;;;16.70;99.90;;;;;;5008517;28;20969;-83
2023/04/25 09:03:20;;;;;;;4.90;4.60;;;16.90;99.90;;;;;;4992161;28;20422;-81
2023/04/25 09:05:46;;;;;;;5.10;4.60;;;17.00;99.90;;;;;;4988023;28;20208;-85
2023/04/25 09:08:12;;;;;;;5.63;5.13;;;17.00;99.90;;;;;;4992283;28;20417;-80
2023/04/25 09:10:38;;;;;;;4.80;4.40;;;16.90;99.90;;;;;;4992358;28;20221;-81
2023/04/25 09:13:15;;;;;;;4.23;3.93;;;16.80;99.90;;;;;;4993753;28;20444;-82
2023/04/25 09:15:48;;;;;;;4.83;4.43;;;16.70;99.90;;;;;;4988655;28;20469;-83
2023/04/25 09:18:22;;;;;;;8.40;7.23;;;16.70;99.90;;;;;;4980990;28;20435;-81
2023/04/25 09:20:48;;;;;;;15.63;10.10;;;16.60;99.90;;;;;;4987227;28;20459;-83
2023/04/25 09:23:14;;;;;;;4.93;4.43;;;16.50;99.90;;;;;;4991803;28;21056;-83
2023/04/25 09:25:40;;;;;;;4.20;3.80;;;16.40;99.90;;;;;;4982409;28;20202;-80
2023/04/25 09:28:06;;;;;;;4.40;4.00;;;16.40;99.90;;;;;;4984672;28;20990;-83
2023/04/25 09:30:34;;;;;;;4.30;3.67;;;16.50;99.90;;;;;;4989856;28;20274;-84
2023/04/25 09:33:08;;;;;;;3.67;3.37;;;16.70;99.90;;;;;;4993787;28;20535;-82
2023/04/25 09:35:39;;;;;;;4.63;4.23;;;16.80;99.90;;;;;;5000119;28;20453;-82
2023/04/25 09:38:18;;;;;;;5.07;4.63;;;16.90;99.90;;;;;;4995684;28;20712;-85
2023/04/25 09:40:45;;;;;;;5.67;4.57;;;16.80;99.90;;;;;;4983876;28;20890;-85
2023/04/25 09:43:22;;;;;;;5.80;5.30;;;16.70;99.90;;;;;;4981247;28;20521;-81
2023/04/25 09:45:49;;;;;;;5.80;5.30;;;16.60;99.90;;;;;;4980684;28;20460;-81
2023/04/25 09:48:21;;;;;;;6.20;5.60;;;16.60;99.90;;;;;;5000499;28;20438;-85
2023/04/25 09:51:05;;;;;;;8.40;5.53;;;16.70;99.90;;;;;;4981465;28;20485;-82
2023/04/25 09:53:33;;;;;;;5.53;5.03;;;16.70;99.90;;;;;;4982846;28;20434;-84
2023/04/25 09:56:00;;;;;;;6.13;5.50;;;16.60;99.90;;;;;;5002072;28;20488;-84
2023/04/25 09:58:29;;;;;;;5.20;4.80;;;16.60;99.90;;;;;;4996399;28;20445;-84
2023/04/25 10:01:00;;;;;;;5.83;4.70;;;16.60;99.90;;;;;;4984055;28;20450;-87
2023/04/25 10:03:26;;;;;;;5.03;4.63;;;16.60;99.90;;;;;;4990254;28;20515;-82
2023/04/25 10:05:53;;;;;;;6.07;3.80;;;16.50;99.90;;;;;;4985328;28;20453;-82
2023/04/25 10:08:20;;;;;;;4.53;4.13;;;16.60;99.90;;;;;;4992690;28;20434;-86
2023/04/25 10:10:48;;;;;;;4.33;4.00;;;16.80;99.90;;;;;;4989984;28;20496;-86
2023/04/25 10:13:15;;;;;;;5.40;4.80;;;16.80;99.90;;;;;;4991317;28;20836;-86
2023/04/25 10:15:41;;;;;;;6.57;4.70;;;16.80;99.90;;;;;;4986311;28;21560;-86
2023/04/25 10:18:07;;;;;;;4.50;4.10;;;16.80;99.90;;;;;;4990639;28;20437;-87
2023/04/25 10:20:33;;;;;;;5.00;4.50;;;16.70;99.90;;;;;;4985900;28;20454;-83
2023/04/25 10:23:14;;;;;;;5.40;4.97;;;16.70;99.90;;;;;;4973114;28;20427;-84
2023/04/25 10:25:42;;;;;;;6.20;4.93;;;16.70;99.90;;;;;;4989455;28;20218;-81
2023/04/25 10:28:07;;;;;;;4.70;4.40;;;16.70;99.90;;;;;;4995210;28;20452;-82
2023/04/25 10:30:34;;;;;;;4.90;4.40;;;16.80;99.90;;;;;;5006600;28;20512;-85
2023/04/25 10:33:00;;;;;;;5.53;4.40;;;16.80;99.90;;;;;;4990934;28;21036;-83
2023/04/25 10:35:32;;;;;;;4.50;4.10;;;16.80;99.90;;;;;;4989515;28;20540;-84
2023/04/25 10:38:05;;;;;;;4.27;3.87;;;16.80;99.90;;;;;;4986446;28;20866;-83
2023/04/25 10:51:52;;;;;;;4.30;3.93;;;17.20;99.90;;;;;;5166095;22;20500;-95
2023/04/25 10:54:19;;;;;;;3.93;3.60;;;17.40;99.90;;;;;;5012243;28;20479;-95
2023/04/25 10:56:49;;;;;;;4.00;3.70;;;17.50;99.90;;;;;;5011672;28;20476;-96
2023/04/25 10:59:18;;;;;;;4.53;3.20;;;17.50;99.90;;;;;;4986014;28;20441;-96
2023/04/25 11:01:57;;;;;;;3.73;3.50;;;17.60;99.90;;;;;;5002439;28;20507;-95
2023/04/25 11:04:30;;;;;;;3.17;2.97;;;17.70;99.90;;;;;;4996980;28;20445;-95
2023/04/25 11:07:03;;;;;;;5.63;3.73;;;17.70;99.90;;;;;;5008718;28;20420;-95
2023/04/25 11:09:29;;;;;;;3.30;3.00;;;17.80;99.90;;;;;;4999765;28;20496;-96
2023/04/25 11:12:00;;;;;;;5.50;5.00;;;17.80;99.90;;;;;;4994047;28;20649;-95
2023/04/25 11:14:27;;;;;;;4.93;4.53;;;17.70;99.90;;;;;;4994541;28;20547;-95
2023/04/25 11:16:55;;;;;;;5.23;4.83;;;17.60;99.90;;;;;;4991530;28;20470;-93
2023/04/25 11:19:21;;;;;;;5.13;4.60;;;17.40;99.90;;;;;;4996268;28;20445;-95
2023/04/25 11:21:47;;;;;;;4.73;4.33;;;17.30;99.90;;;;;;4990298;28;20500;-95
2023/04/25 11:24:16;;;;;;;6.77;4.10;;;17.30;99.90;;;;;;4996355;28;20445;-96
2023/04/25 11:26:42;;;;;;;4.93;4.17;;;17.40;99.90;;;;;;4999711;28;20425;-96
2023/04/25 11:29:50;;;;;;;5.80;3.53;;;17.50;99.90;;;;;;4992437;28;20970;-96
2023/04/25 11:32:17;;;;;;;4.20;3.87;;;17.50;99.90;;;;;;4992674;28;20539;-94
2023/04/25 11:38:51;;;;;;;4.47;3.80;;;17.30;99.90;;;;;;4990189;28;20690;-93
2023/04/25 11:41:50;;;;;;;5.00;4.50;;;17.30;99.90;;;;;;4995051;28;20540;-95
2023/04/25 11:44:17;;;;;;;5.10;4.70;;;17.20;99.90;;;;;;4993324;28;20442;-96
2023/04/25 11:46:46;;;;;;;5.60;5.10;;;17.10;99.90;;;;;;4986747;28;20855;-96
2023/04/25 11:49:19;;;;;;;4.93;4.50;;;17.10;99.90;;;;;;4986528;28;20441;-96
2023/04/25 11:51:48;;;;;;;4.30;4.00;;;17.10;99.90;;;;;;4985466;28;20446;-95
2023/04/25 11:54:14;;;;;;;4.30;3.90;;;17.10;99.90;;;;;;4987468;28;20541;-94
2023/04/25 11:56:44;;;;;;;4.80;4.30;;;17.10;99.90;;;;;;4992312;28;20516;-93
2023/04/25 11:59:10;;;;;;;4.30;4.00;;;17.10;99.90;;;;;;4986226;28;20540;-93
2023/04/25 12:01:38;;;;;;;4.43;4.03;;;17.20;99.90;;;;;;4993988;28;20469;-94
2023/04/25 12:04:16;;;;;;;4.57;4.13;;;17.30;99.90;;;;;;4993308;28;20457;-94
2023/04/25 12:06:46;;;;;;;4.27;3.97;;;17.40;99.90;;;;;;4981659;28;20433;-93
2023/04/25 12:09:14;;;;;;;4.47;3.83;;;17.50;99.90;;;;;;4992418;28;20462;-95
2023/04/25 12:11:45;;;;;;;8.43;3.70;;;17.50;99.90;;;;;;4985018;28;20446;-94
2023/04/25 12:14:20;;;;;;;3.80;3.50;;;17.50;99.90;;;;;;4979080;28;20435;-94
2023/04/25 12:16:49;;;;;;;4.33;3.93;;;17.60;99.90;;;;;;4989016;28;20452;-94
2023/04/25 12:19:15;;;;;;;4.07;3.77;;;;;;;;;;5000924;28;20425;-93
2023/04/25 12:21:42;;;;;;;4.00;3.60;;;17.80;99.90;;;;;;4994479;28;20464;-95
2023/04/25 12:24:17;;;;;;;3.80;3.50;;;18.00;99.90;;;;;;4992693;28;20548;-94
2023/04/25 12:27:04;;;;;;;4.17;3.87;;;18.20;99.90;;;;;;4991484;28;20815;-93
2023/04/25 12:29:31;;;;;;;3.40;3.10;;;18.40;99.90;;;;;;4987740;28;20449;-92
2023/04/25 12:31:58;;;;;;;3.23;2.90;;;18.40;99.90;;;;;;4990156;28;20447;-93
2023/04/25 12:34:25;;;;;;;4.60;2.90;;;18.50;99.90;;;;;;4988467;28;20454;-95
2023/04/25 12:36:52;;;;;;;3.10;2.90;;;18.40;99.90;;;;;;4991210;28;20455;-94
2023/04/25 12:39:27;;;;;;;3.13;2.93;;;18.40;99.90;;;;;;4985765;28;21120;-93
2023/04/25 12:41:53;;;;;;;2.87;2.67;;;18.30;99.90;;;;;;4987752;28;20446;-95
2023/04/25 12:44:20;;;;;;;3.20;3.00;;;18.30;99.90;;;;;;5000356;28;20433;-94
2023/04/25 12:46:49;;;;;;;2.87;2.67;;;18.40;99.90;;;;;;5001092;28;20437;-96
2023/04/25 12:49:15;;;;;;;2.80;2.60;;;18.40;99.90;;;;;;4991735;28;20969;-95
2023/04/25 12:51:41;;;;;;;4.00;3.70;;;18.40;99.90;;;;;;4993315;28;20442;-95
2023/04/25 12:54:08;;;;;;;3.80;3.50;;;18.40;99.90;;;;;;4987269;28;20230;-96
2023/04/25 12:56:35;;;;;;;3.97;3.30;;;18.40;99.90;;;;;;4981249;28;20467;-94
2023/04/25 12:59:02;;;;;;;4.07;3.77;;;18.40;99.90;;;;;;4991109;28;20442;-94